sensor_id;sensor_type;location;lat;lon;timestamp;temperature;humidity
11656;DHT22;5884;43.618;1.438;2024-03-22T05:45:32;12.50;99.90
11656;DHT22;5884;43.618;1.438;2024-03-22T05:48:00;12.50;99.90
11656;DHT22;5884;43.618;1.438;2024-03-22T05:50:26;12.50;99.90
11656;DHT22;5884;43.618;1.438;2024-03-22T05:52:53;12.50;99.90
11656;DHT22;5884;43.618;1.438;2024-03-22T05:55:21;12.50;99.90
11656;DHT22;5884;43.618;1.438;2024-03-22T05:57:48;12.50;99.90
11656;DHT22;5884;43.618;1.438;2024-03-22T06:00:15;12.50;99.90
11656;DHT22;5884;43.618;1.438;2024-03-22T06:02:44;12.50;99.90
11656;DHT22;5884;43.618;1.438;2024-03-22T06:05:11;12.50;99.90
11656;DHT22;5884;43.618;1.438;2024-03-22T06:07:38;12.50;99.90
11656;DHT22;5884;43.618;1.438;2024-03-22T06:10:08;12.50;99.90
11656;DHT22;5884;43.618;1.438;2024-03-22T06:12:36;12.50;99.90
11656;DHT22;5884;43.618;1.438;2024-03-22T06:15:03;12.60;99.90
11656;DHT22;5884;43.618;1.438;2024-03-22T06:17:32;12.60;99.90
11656;DHT22;5884;43.618;1.438;2024-03-22T06:20:00;12.60;99.90
11656;DHT22;5884;43.618;1.438;2024-03-22T06:22:28;12.70;99.90
11656;DHT22;5884;43.618;1.438;2024-03-22T06:24:54;12.80;99.90
11656;DHT22;5884;43.618;1.438;2024-03-22T06:27:21;12.90;99.90
11656;DHT22;5884;43.618;1.438;2024-03-22T06:29:47;13.00;99.90
11656;DHT22;5884;43.618;1.438;2024-03-22T06:32:15;13.00;99.90
11656;DHT22;5884;43.618;1.438;2024-03-22T06:34:42;13.10;99.90
11656;DHT22;5884;43.618;1.438;2024-03-22T06:37:10;13.10;99.90
11656;DHT22;5884;43.618;1.438;2024-03-22T06:39:37;13.20;99.90
11656;DHT22;5884;43.618;1.438;2024-03-22T06:42:04;13.20;99.90
11656;DHT22;5884;43.618;1.438;2024-03-22T06:44:30;13.10;99.90
11656;DHT22;5884;43.618;1.438;2024-03-22T06:46:58;13.10;99.90
11656;DHT22;5884;43.618;1.438;2024-03-22T06:49:24;13.10;99.90
11656;DHT22;5884;43.618;1.438;2024-03-22T06:51:52;13.10;99.90
11656;DHT22;5884;43.618;1.438;2024-03-22T06:54:19;13.20;99.90
11656;DHT22;5884;43.618;1.438;2024-03-22T06:56:47;13.20;99.90
11656;DHT22;5884;43.618;1.438;2024-03-22T06:59:13;13.20;99.90
11656;DHT22;5884;43.618;1.438;2024-03-22T07:02:49;13.20;99.90
11656;DHT22;5884;43.618;1.438;2024-03-22T07:05:16;13.30;99.90
11656;DHT22;5884;43.618;1.438;2024-03-22T07:07:42;13.30;99.90
11656;DHT22;5884;43.618;1.438;2024-03-22T07:10:10;13.30;99.90
11656;DHT22;5884;43.618;1.438;2024-03-22T07:12:36;13.50;99.90
11656;DHT22;5884;43.618;1.438;2024-03-22T07:15:04;13.60;99.90
11656;DHT22;5884;43.618;1.438;2024-03-22T07:17:31;13.70;99.90
11656;DHT22;5884;43.618;1.438;2024-03-22T07:20:00;13.80;99.90
11656;DHT22;5884;43.618;1.438;2024-03-22T07:22:27;13.80;99.90
11656;DHT22;5884;43.618;1.438;2024-03-22T07:24:54;13.90;99.90
11656;DHT22;5884;43.618;1.438;2024-03-22T07:27:21;13.90;99.90
11656;DHT22;5884;43.618;1.438;2024-03-22T07:29:48;14.00;99.90
11656;DHT22;5884;43.618;1.438;2024-03-22T07:32:14;14.00;99.90
11656;DHT22;5884;43.618;1.438;2024-03-22T07:34:45;14.00;99.90
11656;DHT22;5884;43.618;1.438;2024-03-22T07:37:13;14.10;99.90
11656;DHT22;5884;43.618;1.438;2024-03-22T07:39:40;14.20;99.90
11656;DHT22;5884;43.618;1.438;2024-03-22T07:42:06;14.10;99.90
11656;DHT22;5884;43.618;1.438;2024-03-22T07:44:34;14.20;99.90
11656;DHT22;5884;43.618;1.438;2024-03-22T07:47:00;14.20;99.90
11656;DHT22;5884;43.618;1.438;2024-03-22T07:49:27;14.40;99.90
11656;DHT22;5884;43.618;1.438;2024-03-22T07:51:53;14.50;99.90
11656;DHT22;5884;43.618;1.438;2024-03-22T07:54:22;14.60;99.90
11656;DHT22;5884;43.618;1.438;2024-03-22T07:56:48;14.60;99.90
11656;DHT22;5884;43.618;1.438;2024-03-22T07:59:16;14.60;99.90
11656;DHT22;5884;43.618;1.438;2024-03-22T08:01:42;14.70;99.90
11656;DHT22;5884;43.618;1.438;2024-03-22T08:04:09;14.80;99.90
11656;DHT22;5884;43.618;1.438;2024-03-22T08:06:35;14.90;99.90
11656;DHT22;5884;43.618;1.438;2024-03-22T08:09:03;14.90;99.90
11656;DHT22;5884;43.618;1.438;2024-03-22T08:11:30;15.10;99.90
11656;DHT22;5884;43.618;1.438;2024-03-22T08:13:58;15.20;99.90
11656;DHT22;5884;43.618;1.438;2024-03-22T08:16:28;15.20;99.90
11656;DHT22;5884;43.618;1.438;2024-03-22T08:18:56;15.30;99.90
11656;DHT22;5884;43.618;1.438;2024-03-22T08:21:23;15.30;99.90
11656;DHT22;5884;43.618;1.438;2024-03-22T08:23:50;15.30;99.90
11656;DHT22;5884;43.618;1.438;2024-03-22T08:26:16;15.30;99.90
11656;DHT22;5884;43.618;1.438;2024-03-22T08:28:46;15.40;99.90
11656;DHT22;5884;43.618;1.438;2024-03-22T08:31:13;15.40;99.90
11656;DHT22;5884;43.618;1.438;2024-03-22T08:33:40;15.60;99.90
11656;DHT22;5884;43.618;1.438;2024-03-22T08:36:06;15.60;99.90
11656;DHT22;5884;43.618;1.438;2024-03-22T08:38:34;15.60;99.90
11656;DHT22;5884;43.618;1.438;2024-03-22T08:41:00;15.70;99.90
11656;DHT22;5884;43.618;1.438;2024-03-22T08:43:29;15.80;99.90
11656;DHT22;5884;43.618;1.438;2024-03-22T08:45:57;15.80;99.90
11656;DHT22;5884;43.618;1.438;2024-03-22T08:48:24;15.90;99.90
11656;DHT22;5884;43.618;1.438;2024-03-22T08:50:50;15.90;99.90
11656;DHT22;5884;43.618;1.438;2024-03-22T08:53:18;16.00;99.90
11656;DHT22;5884;43.618;1.438;2024-03-22T08:55:47;16.10;99.90
11656;DHT22;5884;43.618;1.438;2024-03-22T08:58:15;16.20;99.90
11656;DHT22;5884;43.618;1.438;2024-03-22T09:00:43;16.20;99.90
11656;DHT22;5884;43.618;1.438;2024-03-22T09:03:12;16.40;99.90
11656;DHT22;5884;43.618;1.438;2024-03-22T09:05:40;16.60;99.90
11656;DHT22;5884;43.618;1.438;2024-03-22T09:08:07;16.70;99.90
11656;DHT22;5884;43.618;1.438;2024-03-22T09:10:34;16.70;99.90
11656;DHT22;5884;43.618;1.438;2024-03-22T09:13:02;16.60;99.90
11656;DHT22;5884;43.618;1.438;2024-03-22T09:15:28;16.70;99.90
11656;DHT22;5884;43.618;1.438;2024-03-22T09:17:56;16.80;99.90
11656;DHT22;5884;43.618;1.438;2024-03-22T09:20:24;16.90;99.90
11656;DHT22;5884;43.618;1.438;2024-03-22T09:22:51;17.00;99.90
11656;DHT22;5884;43.618;1.438;2024-03-22T09:25:17;17.20;99.90
11656;DHT22;5884;43.618;1.438;2024-03-22T09:27:45;17.30;99.90
11656;DHT22;5884;43.618;1.438;2024-03-22T09:30:12;17.40;99.90
11656;DHT22;5884;43.618;1.438;2024-03-22T09:32:40;17.50;99.90
11656;DHT22;5884;43.618;1.438;2024-03-22T09:35:07;17.50;99.90
11656;DHT22;5884;43.618;1.438;2024-03-22T09:37:36;17.50;99.90
11656;DHT22;5884;43.618;1.438;2024-03-22T09:40:02;17.60;99.90
11656;DHT22;5884;43.618;1.438;2024-03-22T09:42:33;17.60;99.90
11656;DHT22;5884;43.618;1.438;2024-03-22T09:45:08;17.80;99.90
11656;DHT22;5884;43.618;1.438;2024-03-22T09:47:37;17.90;99.90
11656;DHT22;5884;43.618;1.438;2024-03-22T09:50:06;18.00;99.90
11656;DHT22;5884;43.618;1.438;2024-03-22T09:52:38;18.00;99.90
11656;DHT22;5884;43.618;1.438;2024-03-22T09:55:05;18.10;99.90
11656;DHT22;5884;43.618;1.438;2024-03-22T09:57:35;18.10;99.90
11656;DHT22;5884;43.618;1.438;2024-03-22T10:00:06;18.10;99.90
11656;DHT22;5884;43.618;1.438;2024-03-22T10:02:35;18.20;99.90
11656;DHT22;5884;43.618;1.438;2024-03-22T10:05:02;18.20;99.90
11656;DHT22;5884;43.618;1.438;2024-03-22T10:07:30;18.30;99.90
11656;DHT22;5884;43.618;1.438;2024-03-22T10:09:59;18.20;99.90
11656;DHT22;5884;43.618;1.438;2024-03-22T10:12:27;18.30;99.90
11656;DHT22;5884;43.618;1.438;2024-03-22T10:14:53;18.40;99.90
11656;DHT22;5884;43.618;1.438;2024-03-22T10:17:21;18.50;99.90
11656;DHT22;5884;43.618;1.438;2024-03-22T10:19:48;18.60;99.90
11656;DHT22;5884;43.618;1.438;2024-03-22T10:22:17;18.70;99.90
11656;DHT22;5884;43.618;1.438;2024-03-22T10:24:43;18.70;99.90
11656;DHT22;5884;43.618;1.438;2024-03-22T10:27:13;18.80;99.90
11656;DHT22;5884;43.618;1.438;2024-03-22T10:29:40;18.90;99.90
11656;DHT22;5884;43.618;1.438;2024-03-22T10:32:08;18.90;99.90
11656;DHT22;5884;43.618;1.438;2024-03-22T10:34:36;18.70;99.90
11656;DHT22;5884;43.618;1.438;2024-03-22T10:37:03;18.60;99.90
11656;DHT22;5884;43.618;1.438;2024-03-22T10:39:30;18.50;99.90
11656;DHT22;5884;43.618;1.438;2024-03-22T10:41:58;18.50;99.90
11656;DHT22;5884;43.618;1.438;2024-03-22T10:44:25;18.50;99.90
11656;DHT22;5884;43.618;1.438;2024-03-22T10:46:54;18.70;99.90
11656;DHT22;5884;43.618;1.438;2024-03-22T10:49:21;18.80;99.90
11656;DHT22;5884;43.618;1.438;2024-03-22T10:51:52;18.80;99.90
11656;DHT22;5884;43.618;1.438;2024-03-22T10:54:25;18.80;99.90
11656;DHT22;5884;43.618;1.438;2024-03-22T10:56:54;19.10;99.90
11656;DHT22;5884;43.618;1.438;2024-03-22T10:59:22;19.30;99.90
11656;DHT22;5884;43.618;1.438;2024-03-22T11:01:51;19.40;99.90
11656;DHT22;5884;43.618;1.438;2024-03-22T11:04:18;19.50;99.90
11656;DHT22;5884;43.618;1.438;2024-03-22T11:06:48;19.70;99.90
11656;DHT22;5884;43.618;1.438;2024-03-22T11:09:21;19.90;99.90
11656;DHT22;5884;43.618;1.438;2024-03-22T11:11:51;20.10;99.90
11656;DHT22;5884;43.618;1.438;2024-03-22T11:14:18;20.20;99.90
11656;DHT22;5884;43.618;1.438;2024-03-22T11:16:46;20.30;99.90
11656;DHT22;5884;43.618;1.438;2024-03-22T11:19:14;20.30;99.90
11656;DHT22;5884;43.618;1.438;2024-03-22T11:21:41;20.30;99.90
11656;DHT22;5884;43.618;1.438;2024-03-22T11:24:07;20.30;99.90
11656;DHT22;5884;43.618;1.438;2024-03-22T11:26:36;20.40;99.90
11656;DHT22;5884;43.618;1.438;2024-03-22T11:29:03;20.40;99.90
11656;DHT22;5884;43.618;1.438;2024-03-22T11:31:31;20.50;99.90
11656;DHT22;5884;43.618;1.438;2024-03-22T11:33:57;20.60;99.90
11656;DHT22;5884;43.618;1.438;2024-03-22T11:36:26;20.70;99.90
11656;DHT22;5884;43.618;1.438;2024-03-22T11:38:52;20.70;99.90
11656;DHT22;5884;43.618;1.438;2024-03-22T11:41:21;20.80;99.90
11656;DHT22;5884;43.618;1.438;2024-03-22T11:43:50;21.00;99.90
11656;DHT22;5884;43.618;1.438;2024-03-22T11:46:18;21.00;99.90
11656;DHT22;5884;43.618;1.438;2024-03-22T11:48:51;20.90;99.90
11656;DHT22;5884;43.618;1.438;2024-03-22T11:51:19;21.00;99.90
11656;DHT22;5884;43.618;1.438;2024-03-22T11:53:50;21.20;99.90
11656;DHT22;5884;43.618;1.438;2024-03-22T11:56:18;21.20;99.90
11656;DHT22;5884;43.618;1.438;2024-03-22T11:58:46;21.30;99.90
11656;DHT22;5884;43.618;1.438;2024-03-22T12:01:15;21.20;99.90
11656;DHT22;5884;43.618;1.438;2024-03-22T12:03:43;21.20;99.90
11656;DHT22;5884;43.618;1.438;2024-03-22T12:06:11;21.40;99.90
11656;DHT22;5884;43.618;1.438;2024-03-22T12:08:37;21.30;99.90
11656;DHT22;5884;43.618;1.438;2024-03-22T12:11:08;21.30;99.90
11656;DHT22;5884;43.618;1.438;2024-03-22T12:13:35;21.60;99.90
11656;DHT22;5884;43.618;1.438;2024-03-22T12:16:04;21.60;99.90
11656;DHT22;5884;43.618;1.438;2024-03-22T12:18:30;21.70;99.90
11656;DHT22;5884;43.618;1.438;2024-03-22T12:20:58;21.70;99.90
11656;DHT22;5884;43.618;1.438;2024-03-22T12:23:25;21.80;99.90
11656;DHT22;5884;43.618;1.438;2024-03-22T12:25:52;21.70;99.90
11656;DHT22;5884;43.618;1.438;2024-03-22T12:28:21;21.80;99.90
11656;DHT22;5884;43.618;1.438;2024-03-22T12:30:48;21.90;99.90
11656;DHT22;5884;43.618;1.438;2024-03-22T12:33:15;22.00;99.90
11656;DHT22;5884;43.618;1.438;2024-03-22T12:35:42;22.10;99.90
11656;DHT22;5884;43.618;1.438;2024-03-22T12:38:09;22.20;99.90
11656;DHT22;5884;43.618;1.438;2024-03-22T12:40:39;22.30;99.90
11656;DHT22;5884;43.618;1.438;2024-03-22T12:43:05;22.20;99.90
11656;DHT22;5884;43.618;1.438;2024-03-22T12:45:34;22.20;99.90
11656;DHT22;5884;43.618;1.438;2024-03-22T12:48:00;22.20;99.90
11656;DHT22;5884;43.618;1.438;2024-03-22T12:50:28;22.30;99.90
11656;DHT22;5884;43.618;1.438;2024-03-22T12:52:54;22.40;99.90
11656;DHT22;5884;43.618;1.438;2024-03-22T12:55:21;22.40;99.90
11656;DHT22;5884;43.618;1.438;2024-03-22T12:57:48;22.50;99.90
11656;DHT22;5884;43.618;1.438;2024-03-22T13:00:15;22.60;99.90
11656;DHT22;5884;43.618;1.438;2024-03-22T13:02:45;22.60;99.90
11656;DHT22;5884;43.618;1.438;2024-03-22T13:05:13;22.50;99.90
11656;DHT22;5884;43.618;1.438;2024-03-22T13:07:41;22.40;99.90
11656;DHT22;5884;43.618;1.438;2024-03-22T13:10:09;22.60;99.90
11656;DHT22;5884;43.618;1.438;2024-03-22T13:12:36;22.80;99.90
11656;DHT22;5884;43.618;1.438;2024-03-22T13:15:03;22.80;99.90
11656;DHT22;5884;43.618;1.438;2024-03-22T13:17:30;22.80;99.90
11656;DHT22;5884;43.618;1.438;2024-03-22T13:19:59;22.90;99.90
11656;DHT22;5884;43.618;1.438;2024-03-22T13:22:25;22.90;99.90
11656;DHT22;5884;43.618;1.438;2024-03-22T13:24:52;22.90;99.90
11656;DHT22;5884;43.618;1.438;2024-03-22T13:27:19;23.10;99.90
11656;DHT22;5884;43.618;1.438;2024-03-22T13:29:51;23.10;99.90
11656;DHT22;5884;43.618;1.438;2024-03-22T13:32:18;23.10;99.90
11656;DHT22;5884;43.618;1.438;2024-03-22T13:34:46;23.00;99.90
11656;DHT22;5884;43.618;1.438;2024-03-22T13:37:13;23.10;99.90
11656;DHT22;5884;43.618;1.438;2024-03-22T13:39:40;23.20;99.90
11656;DHT22;5884;43.618;1.438;2024-03-22T13:42:07;23.30;99.90
11656;DHT22;5884;43.618;1.438;2024-03-22T13:44:35;23.40;99.90
11656;DHT22;5884;43.618;1.438;2024-03-22T13:47:01;23.30;99.90
11656;DHT22;5884;43.618;1.438;2024-03-22T13:49:30;23.30;99.90
11656;DHT22;5884;43.618;1.438;2024-03-22T13:51:58;23.30;99.90
11656;DHT22;5884;43.618;1.438;2024-03-22T13:54:27;23.50;99.90
11656;DHT22;5884;43.618;1.438;2024-03-22T13:56:53;23.50;99.90
11656;DHT22;5884;43.618;1.438;2024-03-22T13:59:20;23.50;99.90
11656;DHT22;5884;43.618;1.438;2024-03-22T14:01:47;23.60;99.90
11656;DHT22;5884;43.618;1.438;2024-03-22T14:04:14;23.70;99.90
11656;DHT22;5884;43.618;1.438;2024-03-22T14:06:41;23.70;99.90
11656;DHT22;5884;43.618;1.438;2024-03-22T14:09:08;23.70;99.90
11656;DHT22;5884;43.618;1.438;2024-03-22T14:11:37;23.80;99.90
11656;DHT22;5884;43.618;1.438;2024-03-22T14:14:04;23.90;99.90
11656;DHT22;5884;43.618;1.438;2024-03-22T14:16:33;23.80;99.90
11656;DHT22;5884;43.618;1.438;2024-03-22T14:18:59;23.70;99.90
11656;DHT22;5884;43.618;1.438;2024-03-22T14:21:27;23.70;99.90
11656;DHT22;5884;43.618;1.438;2024-03-22T14:23:54;23.70;99.90
11656;DHT22;5884;43.618;1.438;2024-03-22T14:26:22;23.80;99.90
11656;DHT22;5884;43.618;1.438;2024-03-22T14:28:50;23.90;99.90
11656;DHT22;5884;43.618;1.438;2024-03-22T14:31:18;24.00;99.90
11656;DHT22;5884;43.618;1.438;2024-03-22T14:33:45;24.00;99.90
11656;DHT22;5884;43.618;1.438;2024-03-22T14:36:13;24.00;99.90
11656;DHT22;5884;43.618;1.438;2024-03-22T14:38:39;24.00;99.90
11656;DHT22;5884;43.618;1.438;2024-03-22T14:41:07;23.90;99.90
11656;DHT22;5884;43.618;1.438;2024-03-22T14:43:33;23.90;99.90
11656;DHT22;5884;43.618;1.438;2024-03-22T14:46:02;24.00;99.90
11656;DHT22;5884;43.618;1.438;2024-03-22T14:48:29;24.10;99.90
11656;DHT22;5884;43.618;1.438;2024-03-22T14:50:56;24.00;99.90
11656;DHT22;5884;43.618;1.438;2024-03-22T14:53:22;23.90;99.90
11656;DHT22;5884;43.618;1.438;2024-03-22T14:55:53;24.00;99.90
11656;DHT22;5884;43.618;1.438;2024-03-22T14:58:23;24.00;99.90
11656;DHT22;5884;43.618;1.438;2024-03-22T15:00:55;24.00;99.90
11656;DHT22;5884;43.618;1.438;2024-03-22T15:03:24;24.00;99.90
11656;DHT22;5884;43.618;1.438;2024-03-22T15:05:52;24.00;99.90
11656;DHT22;5884;43.618;1.438;2024-03-22T15:08:19;23.80;99.90
11656;DHT22;5884;43.618;1.438;2024-03-22T15:10:47;23.80;99.90
11656;DHT22;5884;43.618;1.438;2024-03-22T15:13:15;23.90;99.90
11656;DHT22;5884;43.618;1.438;2024-03-22T15:15:44;23.90;99.90
11656;DHT22;5884;43.618;1.438;2024-03-22T15:18:18;23.80;99.90
11656;DHT22;5884;43.618;1.438;2024-03-22T15:20:47;23.80;99.90
11656;DHT22;5884;43.618;1.438;2024-03-22T15:23:14;23.90;99.90
11656;DHT22;5884;43.618;1.438;2024-03-22T15:25:42;23.80;99.90
11656;DHT22;5884;43.618;1.438;2024-03-22T15:28:09;23.90;99.90
11656;DHT22;5884;43.618;1.438;2024-03-22T15:30:36;23.90;99.90
11656;DHT22;5884;43.618;1.438;2024-03-22T15:33:04;23.80;99.90
11656;DHT22;5884;43.618;1.438;2024-03-22T15:35:32;23.80;99.90
11656;DHT22;5884;43.618;1.438;2024-03-22T15:38:00;23.70;99.90
11656;DHT22;5884;43.618;1.438;2024-03-22T15:40:29;23.70;99.90
11656;DHT22;5884;43.618;1.438;2024-03-22T15:42:58;23.80;99.90
11656;DHT22;5884;43.618;1.438;2024-03-22T15:45:25;23.70;99.90
11656;DHT22;5884;43.618;1.438;2024-03-22T15:47:51;23.80;99.90
11656;DHT22;5884;43.618;1.438;2024-03-22T15:50:19;23.90;99.90
11656;DHT22;5884;43.618;1.438;2024-03-22T15:52:45;23.90;99.90
11656;DHT22;5884;43.618;1.438;2024-03-22T15:55:14;23.90;99.90
11656;DHT22;5884;43.618;1.438;2024-03-22T15:57:40;23.90;99.90
11656;DHT22;5884;43.618;1.438;2024-03-22T16:00:09;23.80;99.90
11656;DHT22;5884;43.618;1.438;2024-03-22T16:02:37;23.80;99.90
11656;DHT22;5884;43.618;1.438;2024-03-22T16:05:05;23.70;99.90
11656;DHT22;5884;43.618;1.438;2024-03-22T16:07:33;23.60;99.90
11656;DHT22;5884;43.618;1.438;2024-03-22T16:10:00;23.50;99.90
11656;DHT22;5884;43.618;1.438;2024-03-22T16:12:30;23.50;99.90
11656;DHT22;5884;43.618;1.438;2024-03-22T16:14:57;23.50;99.90
11656;DHT22;5884;43.618;1.438;2024-03-22T16:17:23;23.70;99.90
11656;DHT22;5884;43.618;1.438;2024-03-22T16:19:52;23.60;99.90
11656;DHT22;5884;43.618;1.438;2024-03-22T16:22:18;23.50;99.90
11656;DHT22;5884;43.618;1.438;2024-03-22T16:24:45;23.50;99.90
11656;DHT22;5884;43.618;1.438;2024-03-22T16:27:11;23.50;99.90
11656;DHT22;5884;43.618;1.438;2024-03-22T16:29:40;23.50;99.90
11656;DHT22;5884;43.618;1.438;2024-03-22T16:32:06;23.40;99.90
11656;DHT22;5884;43.618;1.438;2024-03-22T16:34:35;23.30;99.90
11656;DHT22;5884;43.618;1.438;2024-03-22T16:37:02;23.30;99.90
11656;DHT22;5884;43.618;1.438;2024-03-22T16:39:31;23.30;99.90
11656;DHT22;5884;43.618;1.438;2024-03-22T16:41:57;23.10;99.90
11656;DHT22;5884;43.618;1.438;2024-03-22T16:44:25;23.10;99.90
11656;DHT22;5884;43.618;1.438;2024-03-22T16:46:52;23.10;99.90
11656;DHT22;5884;43.618;1.438;2024-03-22T16:49:20;23.20;99.90
11656;DHT22;5884;43.618;1.438;2024-03-22T16:51:46;23.10;99.90
11656;DHT22;5884;43.618;1.438;2024-03-22T16:54:13;23.10;99.90
11656;DHT22;5884;43.618;1.438;2024-03-22T16:56:40;23.00;99.90
11656;DHT22;5884;43.618;1.438;2024-03-22T16:59:07;23.00;99.90
11656;DHT22;5884;43.618;1.438;2024-03-22T17:01:33;22.90;99.90
11656;DHT22;5884;43.618;1.438;2024-03-22T17:04:02;22.80;99.90
11656;DHT22;5884;43.618;1.438;2024-03-22T17:06:28;22.70;99.90
11656;DHT22;5884;43.618;1.438;2024-03-22T17:08:55;22.70;99.90
11656;DHT22;5884;43.618;1.438;2024-03-22T17:11:22;22.70;99.90
11656;DHT22;5884;43.618;1.438;2024-03-22T17:13:49;22.70;99.90
11656;DHT22;5884;43.618;1.438;2024-03-22T17:16:16;22.60;99.90
11656;DHT22;5884;43.618;1.438;2024-03-22T17:18:43;22.50;99.90
11656;DHT22;5884;43.618;1.438;2024-03-22T17:21:10;22.50;99.90
11656;DHT22;5884;43.618;1.438;2024-03-22T17:23:38;22.40;99.90
11656;DHT22;5884;43.618;1.438;2024-03-22T17:26:04;22.30;99.90
11656;DHT22;5884;43.618;1.438;2024-03-22T17:28:32;22.30;99.90
11656;DHT22;5884;43.618;1.438;2024-03-22T17:30:58;22.30;99.90
11656;DHT22;5884;43.618;1.438;2024-03-22T17:33:25;22.20;99.90
11656;DHT22;5884;43.618;1.438;2024-03-22T17:35:52;22.20;99.90
11656;DHT22;5884;43.618;1.438;2024-03-22T17:38:20;22.10;99.90
11656;DHT22;5884;43.618;1.438;2024-03-22T17:40:47;22.00;99.90
11656;DHT22;5884;43.618;1.438;2024-03-22T17:43:13;22.00;99.90
11656;DHT22;5884;43.618;1.438;2024-03-22T17:45:41;21.90;99.90
11656;DHT22;5884;43.618;1.438;2024-03-22T17:48:07;21.90;99.90
11656;DHT22;5884;43.618;1.438;2024-03-22T17:50:34;21.90;99.90
11656;DHT22;5884;43.618;1.438;2024-03-22T17:53:00;21.70;99.90
11656;DHT22;5884;43.618;1.438;2024-03-22T17:55:29;21.60;99.90
11656;DHT22;5884;43.618;1.438;2024-03-22T17:57:55;21.50;99.90
11656;DHT22;5884;43.618;1.438;2024-03-22T18:00:22;21.50;99.90
11656;DHT22;5884;43.618;1.438;2024-03-22T18:02:49;21.40;99.90
11656;DHT22;5884;43.618;1.438;2024-03-22T18:05:16;21.30;99.90
11656;DHT22;5884;43.618;1.438;2024-03-22T18:07:43;21.20;99.90
11656;DHT22;5884;43.618;1.438;2024-03-22T18:10:10;21.10;99.90
11656;DHT22;5884;43.618;1.438;2024-03-22T18:12:38;21.00;99.90
11656;DHT22;5884;43.618;1.438;2024-03-22T18:15:06;20.90;99.90
11656;DHT22;5884;43.618;1.438;2024-03-22T18:17:34;20.80;99.90
11656;DHT22;5884;43.618;1.438;2024-03-22T18:20:04;20.70;99.90
11656;DHT22;5884;43.618;1.438;2024-03-22T18:22:31;20.60;99.90
11656;DHT22;5884;43.618;1.438;2024-03-22T18:24:59;20.50;99.90
11656;DHT22;5884;43.618;1.438;2024-03-22T18:27:25;20.30;99.90
11656;DHT22;5884;43.618;1.438;2024-03-22T18:29:54;20.20;99.90
11656;DHT22;5884;43.618;1.438;2024-03-22T18:32:20;20.10;99.90
11656;DHT22;5884;43.618;1.438;2024-03-22T18:34:47;20.00;99.90
11656;DHT22;5884;43.618;1.438;2024-03-22T18:37:13;19.90;99.90
11656;DHT22;5884;43.618;1.438;2024-03-22T18:39:41;19.80;99.90
11656;DHT22;5884;43.618;1.438;2024-03-22T18:42:07;19.70;99.90
11656;DHT22;5884;43.618;1.438;2024-03-22T18:44:35;19.60;99.90
11656;DHT22;5884;43.618;1.438;2024-03-22T18:47:07;19.50;99.90
11656;DHT22;5884;43.618;1.438;2024-03-22T18:49:34;19.50;99.90
11656;DHT22;5884;43.618;1.438;2024-03-22T18:52:00;19.40;99.90
11656;DHT22;5884;43.618;1.438;2024-03-22T18:54:28;19.40;99.90
11656;DHT22;5884;43.618;1.438;2024-03-22T18:56:54;19.40;99.90
11656;DHT22;5884;43.618;1.438;2024-03-22T18:59:21;19.40;99.90
11656;DHT22;5884;43.618;1.438;2024-03-22T19:01:47;19.30;99.90
11656;DHT22;5884;43.618;1.438;2024-03-22T19:04:16;19.30;99.90
11656;DHT22;5884;43.618;1.438;2024-03-22T19:06:42;19.20;99.90
11656;DHT22;5884;43.618;1.438;2024-03-22T19:09:10;19.20;99.90
11656;DHT22;5884;43.618;1.438;2024-03-22T19:11:37;19.10;99.90
11656;DHT22;5884;43.618;1.438;2024-03-22T19:14:04;19.00;99.90
11656;DHT22;5884;43.618;1.438;2024-03-22T19:16:31;19.00;99.90
11656;DHT22;5884;43.618;1.438;2024-03-22T19:18:59;19.00;99.90
11656;DHT22;5884;43.618;1.438;2024-03-22T19:21:27;19.00;99.90
11656;DHT22;5884;43.618;1.438;2024-03-22T19:23:54;18.90;99.90
11656;DHT22;5884;43.618;1.438;2024-03-22T19:26:20;18.80;99.90
11656;DHT22;5884;43.618;1.438;2024-03-22T19:28:47;18.70;99.90
11656;DHT22;5884;43.618;1.438;2024-03-22T19:31:14;18.70;99.90
11656;DHT22;5884;43.618;1.438;2024-03-22T19:33:41;18.70;99.90
11656;DHT22;5884;43.618;1.438;2024-03-22T19:36:09;18.50;99.90
11656;DHT22;5884;43.618;1.438;2024-03-22T19:38:38;18.50;99.90
11656;DHT22;5884;43.618;1.438;2024-03-22T19:41:04;18.50;99.90
11656;DHT22;5884;43.618;1.438;2024-03-22T19:43:33;18.50;99.90
11656;DHT22;5884;43.618;1.438;2024-03-22T19:46:00;18.40;99.90
11656;DHT22;5884;43.618;1.438;2024-03-22T19:48:28;18.40;99.90
11656;DHT22;5884;43.618;1.438;2024-03-22T19:50:54;18.40;99.90
11656;DHT22;5884;43.618;1.438;2024-03-22T19:53:22;18.30;99.90
11656;DHT22;5884;43.618;1.438;2024-03-22T19:55:50;18.30;99.90
11656;DHT22;5884;43.618;1.438;2024-03-22T19:58:19;18.30;99.90
11656;DHT22;5884;43.618;1.438;2024-03-22T20:00:47;18.20;99.90
11656;DHT22;5884;43.618;1.438;2024-03-22T20:03:16;18.20;99.90
11656;DHT22;5884;43.618;1.438;2024-03-22T20:05:42;18.20;99.90
11656;DHT22;5884;43.618;1.438;2024-03-22T20:08:09;18.10;99.90
11656;DHT22;5884;43.618;1.438;2024-03-22T20:10:35;18.00;99.90
11656;DHT22;5884;43.618;1.438;2024-03-22T20:13:04;18.00;99.90
11656;DHT22;5884;43.618;1.438;2024-03-22T20:15:32;18.00;99.90
11656;DHT22;5884;43.618;1.438;2024-03-22T20:18:00;17.90;99.90
11656;DHT22;5884;43.618;1.438;2024-03-22T20:20:26;17.80;99.90
11656;DHT22;5884;43.618;1.438;2024-03-22T20:22:54;17.70;99.90
11656;DHT22;5884;43.618;1.438;2024-03-22T20:25:21;17.70;99.90
11656;DHT22;5884;43.618;1.438;2024-03-22T20:27:49;17.60;99.90
11656;DHT22;5884;43.618;1.438;2024-03-22T20:30:16;17.60;99.90
11656;DHT22;5884;43.618;1.438;2024-03-22T20:32:44;17.60;99.90
11656;DHT22;5884;43.618;1.438;2024-03-22T20:35:10;17.60;99.90
11656;DHT22;5884;43.618;1.438;2024-03-22T20:37:37;17.60;99.90
